• Join FlightAware (Why Join?)
  • Login
  • US Flag 
01:21AM EST


 

Airport Tracker/Info


-or-


 

Live Flight TrackerFlight Track Log ✈ SKW4664 ✈ 23-Apr-2013 ✈ KMSP - KFSD

Flight Track Log - Related Links

Times and Time Zones

All times are in EDT time to prevent confusion due to time zone crossing. See the SKW4664 flight status page for this flight to view local times or setup timezone preferences in your user account.

Time Position Orientation Groundspeed Altitude Reporting Facility
EDT Latitude Longitude Course Direction KTS MPH feet Rate Location/Type
10:21AM 44.8975 -93.2528 235° Southwest 164 189 2,600  Level FAA TRACON SMA TRACON (SMA)
10:21AM 44.8928 -93.2764 254° West 193 222 3,400 2,700 Climbing FAA TRACON SMA TRACON (SMA)
10:22AM 44.8864 -93.3083 254° West 219 252 4,400 2,700 Climbing FAA TRACON SMA TRACON (SMA)
10:22AM 44.8806 -93.3369 254° West 240 276 5,200 2,520 Climbing FAA TRACON SMA TRACON (SMA)
10:22AM 44.8733 -93.3667 251° West 258 297 6,100 3,180 Climbing FAA TRACON SMA TRACON (SMA)
10:23AM 44.8550 -93.3989 231° Southwest 275 316 7,500 3,660 Climbing FAA TRACON SMA TRACON (SMA)
10:23AM 44.8397 -93.4244 230° Southwest 276 318 8,700 3,540 Climbing FAA TRACON SMA TRACON (SMA)
10:23AM 44.8244 -93.4497 230° Southwest 277 319 9,700 2,820 Climbing FAA TRACON SMA TRACON (SMA)
10:24AM 44.6887 -93.6226 235° Southwest  Level FlightAware Approximate
10:24AM 44.8097 -93.4756 231° Southwest 277 319 10,500  Level FAA TRACON SMA TRACON (SMA)
10:24AM 44.7892 -93.5086 229° Southwest 289 333 11,400 2,820 Climbing FAA TRACON SMA TRACON (SMA)
10:24AM 44.7733 -93.5353 230° Southwest 290 334 12,400 2,580 Climbing FAA TRACON SMA TRACON (SMA)
10:25AM 44.6371 -93.7259 235° Southwest  Level FlightAware Approximate
10:25AM 44.7569 -93.5619 229° Southwest 294 338 13,100  Level FAA TRACON SMA TRACON (SMA)
10:25AM 44.7361 -93.5961 229° Southwest 299 344 14,200 2,760 Climbing FAA TRACON SMA TRACON (SMA)
10:25AM 44.7192 -93.6239 229° Southwest 303 349 15,000 2,580 Climbing FAA TRACON SMA TRACON (SMA)
10:26AM 44.5855 -93.8290 235° Southwest  Level FlightAware Approximate
10:26AM 44.6972 -93.6589 229° Southwest 307 353 16,000  Level FAA TRACON SMA TRACON (SMA)
10:26AM 44.6806 -93.6869 230° Southwest 307 353 16,800 2,400 Climbing FAA TRACON SMA TRACON (SMA)
10:26AM 44.6636 -93.7156 230° Southwest 308 354 17,600 1,800 Climbing FAA TRACON SMA TRACON (SMA)
10:27AM 44.6417 -93.7511 229° Southwest 311 358 18,000 600 Climbing FAA TRACON SMA TRACON (SMA)
10:27AM 44.6239 -93.7797 229° Southwest 317 365 18,000  Level FAA TRACON SMA TRACON (SMA)
10:27AM 44.6064 -93.8081 229° Southwest 315 362 18,000  Level FAA TRACON SMA TRACON (SMA)
10:28AM 44.5856 -93.8442 231° Southwest 310 357 18,000  Level FAA TRACON SMA TRACON (SMA)
10:28AM 44.5731 -93.8753 241° Southwest 301 346 18,000  Level FAA TRACON SMA TRACON (SMA)
10:28AM 44.5625 -93.9081 246° West 299 344 18,000  Level FAA TRACON SMA TRACON (SMA)
10:29AM 44.5497 -93.9483 246° West 295 339 18,000  Level FAA TRACON SMA TRACON (SMA)
10:29AM 44.5394 -93.9803 246° West 293 337 18,000  Level FAA TRACON SMA TRACON (SMA)
10:29AM 44.5283 -94.0114 243° Southwest 292 336 18,000  Level FAA TRACON SMA TRACON (SMA)
10:30AM 44.5156 -94.0525 246° West 296 341 18,000  Level FAA TRACON SMA TRACON (SMA)
10:30AM 44.5058 -94.0853 247° West 297 342 18,000  Level FAA TRACON SMA TRACON (SMA)
10:30AM 44.4953 -94.1178 246° West 297 342 18,000  Level FAA TRACON SMA TRACON (SMA)
10:31AM 44.4822 -94.1592 246° West 300 345 18,000  Level FAA TRACON SMA TRACON (SMA)
10:31AM 44.4722 -94.1922 247° West 301 346 18,000  Level FAA TRACON SMA TRACON (SMA)
10:31AM 44.4611 -94.2244 244° Southwest 302 348 18,000  Level FAA TRACON SMA TRACON (SMA)
10:32AM 44.4478 -94.2661 246° West 303 349 18,000  Level FAA TRACON SMA TRACON (SMA)
10:32AM 44.4381 -94.2997 248° West 302 348 18,000  Level FAA TRACON SMA TRACON (SMA)
10:32AM 44.4261 -94.3317 242° Southwest 302 348 18,000  Level FAA TRACON SMA TRACON (SMA)
10:33AM 44.4133 -94.3733 247° West 302 348 18,000  Level FAA TRACON SMA TRACON (SMA)
10:33AM 44.4019 -94.4056 244° Southwest 302 348 18,000  Level FAA TRACON SMA TRACON (SMA)
10:33AM 44.3928 -94.4394 249° West 302 348 18,000  Level FAA TRACON SMA TRACON (SMA)
10:34AM 44.3656 -94.5075 241° Southwest 297 342 18,000  Level Minneapolis Center
10:35AM 44.3294 -94.6125 244° Southwest 300 345 18,000  Level Minneapolis Center
10:36AM 44.2892 -94.7286 244° Southwest 301 346 18,000  Level Minneapolis Center
10:37AM 44.2544 -94.8344 245° Southwest 301 346 18,000  Level Minneapolis Center
10:38AM 44.2189 -94.9397 245° Southwest 301 346 18,000  Level Minneapolis Center
10:39AM 44.1756 -95.0658 244° Southwest 301 346 18,000  Level Minneapolis Center
10:40AM 44.1383 -95.1731 244° Southwest 306 352 18,000  Level Minneapolis Center
10:42AM 44.1022 -95.2772 244° Southwest 301 346 18,000  Level Minneapolis Center
10:43AM 44.0656 -95.3817 244° Southwest 301 346 18,000  Level Minneapolis Center
10:44AM 44.0289 -95.4869 244° Southwest 301 346 18,000  Level Minneapolis Center
10:45AM 43.9928 -95.5911 244° Southwest 300 345 18,000  Level Minneapolis Center
10:46AM 43.9561 -95.6956 244° Southwest 301 346 18,000  Level Minneapolis Center
10:47AM 43.9192 -95.8003 244° Southwest 301 346 18,000 -240 Level Minneapolis Center
10:48AM 43.8794 -95.9022 242° Southwest 300 345 17,600 -1,560 Descending Minneapolis Center
10:49AM 43.8139 -96.0111 230° Southwest 303 349 14,500 -2,220 Descending Minneapolis Center
10:50AM 43.7525 -96.1133 230° Southwest 288 331 12,600 -1,680 Descending Minneapolis Center
10:51AM 43.7078 -96.1978 234° Southwest 280 322 11,100 -1,500 Descending Minneapolis Center
10:52AM 43.6636 -96.2875 236° Southwest 278 320 9,600 -1,500 Descending Minneapolis Center
10:53AM 43.6203 -96.3772 236° Southwest 279 321 8,100 -1,500 Descending Minneapolis Center
10:54AM 43.5778 -96.4681 237° Southwest 280 322 6,600 -1,620 Descending Minneapolis Center
10:55AM 43.5358 -96.5750 242° Southwest 273 314 4,800 -1,800 Descending Minneapolis Center